KBBW/BBW METAR and TAF weather

Enter ICAO airport designator
Station Type Date Time Source
KBBW METAR 2021/09/27 06:53 UTC NOAA

KBBW 270653Z AUTO 00000KT 10SM CLR 12/08 A2984 RMK AO2 SLP081 T01170078


Station Type Date Time Source
KBBW Decoded METAR 2021/09/27 06:53 UTC NOAA

BROKEN BOW MUNICIPAL AIRPORT, NE, United States (KBBW) 41-26N 099-38W
Sep 27, 2021 - 02:53 AM EDT / 2021.09.27 0653 UTC
Wind: Calm:0
Visibility: 10 mile(s):0
Sky conditions: clear
Temperature: 53.1 F (11.7 C)
Dew Point: 46.0 F (7.8 C)
Relative Humidity: 76%
Pressure (altimeter): 29.84 in. Hg (1010 hPa)
ob: KBBW 270653Z AUTO 00000KT 10SM CLR 12/08 A2984 RMK AO2 SLP081 T01170078
cycle: 7

Station Type Date Time Source
KBBW TAF UTC NOAA

Error!

Example: see airport list